sensor_id;sensor_type;location;lat;lon;timestamp;P1;durP1;ratioP1;P2;durP2;ratioP2
70543;SDS011;58097;48.364;-1.224;2023-03-15T00:01:57;10.98;;;3.40;;
70543;SDS011;58097;48.364;-1.224;2023-03-15T00:04:23;9.85;;;2.88;;
70543;SDS011;58097;48.364;-1.224;2023-03-15T00:06:50;12.10;;;2.92;;
70543;SDS011;58097;48.364;-1.224;2023-03-15T00:09:15;8.05;;;2.13;;
70543;SDS011;58097;48.364;-1.224;2023-03-15T00:11:41;9.52;;;2.90;;
70543;SDS011;58097;48.364;-1.224;2023-03-15T00:14:06;10.18;;;2.50;;
70543;SDS011;58097;48.364;-1.224;2023-03-15T00:16:32;7.57;;;2.35;;
70543;SDS011;58097;48.364;-1.224;2023-03-15T00:18:57;6.68;;;2.17;;
70543;SDS011;58097;48.364;-1.224;2023-03-15T00:21:23;8.48;;;2.17;;
70543;SDS011;58097;48.364;-1.224;2023-03-15T00:23:49;10.40;;;2.70;;
70543;SDS011;58097;48.364;-1.224;2023-03-15T00:26:14;11.82;;;2.42;;
70543;SDS011;58097;48.364;-1.224;2023-03-15T00:28:40;6.13;;;2.05;;
70543;SDS011;58097;48.364;-1.224;2023-03-15T00:33:39;13.10;;;2.95;;
70543;SDS011;58097;48.364;-1.224;2023-03-15T00:36:05;12.57;;;2.75;;
70543;SDS011;58097;48.364;-1.224;2023-03-15T00:38:32;10.38;;;2.97;;
70543;SDS011;58097;48.364;-1.224;2023-03-15T00:41:05;10.25;;;3.78;;
70543;SDS011;58097;48.364;-1.224;2023-03-15T00:43:32;12.00;;;3.08;;
70543;SDS011;58097;48.364;-1.224;2023-03-15T00:45:57;11.70;;;3.17;;
70543;SDS011;58097;48.364;-1.224;2023-03-15T00:48:23;8.90;;;2.42;;
70543;SDS011;58097;48.364;-1.224;2023-03-15T00:50:48;7.57;;;2.88;;
70543;SDS011;58097;48.364;-1.224;2023-03-15T00:53:14;13.63;;;3.55;;
70543;SDS011;58097;48.364;-1.224;2023-03-15T00:55:39;7.53;;;3.20;;
70543;SDS011;58097;48.364;-1.224;2023-03-15T00:58:06;5.90;;;3.25;;
70543;SDS011;58097;48.364;-1.224;2023-03-15T01:00:32;5.95;;;2.85;;
70543;SDS011;58097;48.364;-1.224;2023-03-15T01:02:57;5.53;;;2.47;;
70543;SDS011;58097;48.364;-1.224;2023-03-15T01:05:23;7.97;;;2.50;;
70543;SDS011;58097;48.364;-1.224;2023-03-15T01:07:50;12.85;;;3.15;;
70543;SDS011;58097;48.364;-1.224;2023-03-15T01:10:16;14.00;;;2.83;;
70543;SDS011;58097;48.364;-1.224;2023-03-15T01:12:42;9.50;;;3.10;;
70543;SDS011;58097;48.364;-1.224;2023-03-15T01:15:08;6.43;;;2.20;;
70543;SDS011;58097;48.364;-1.224;2023-03-15T01:17:37;8.98;;;2.97;;
70543;SDS011;58097;48.364;-1.224;2023-03-15T01:20:02;5.50;;;2.97;;
70543;SDS011;58097;48.364;-1.224;2023-03-15T01:22:29;5.43;;;2.80;;
70543;SDS011;58097;48.364;-1.224;2023-03-15T01:24:54;13.68;;;4.30;;
70543;SDS011;58097;48.364;-1.224;2023-03-15T01:27:20;9.82;;;3.53;;
70543;SDS011;58097;48.364;-1.224;2023-03-15T01:29:45;14.68;;;3.47;;
70543;SDS011;58097;48.364;-1.224;2023-03-15T01:32:10;10.02;;;3.33;;
70543;SDS011;58097;48.364;-1.224;2023-03-15T01:34:36;7.95;;;2.95;;
70543;SDS011;58097;48.364;-1.224;2023-03-15T01:37:01;6.72;;;2.70;;
70543;SDS011;58097;48.364;-1.224;2023-03-15T01:39:27;10.40;;;3.80;;
70543;SDS011;58097;48.364;-1.224;2023-03-15T01:41:53;16.35;;;3.70;;
70543;SDS011;58097;48.364;-1.224;2023-03-15T01:44:19;6.47;;;2.78;;
70543;SDS011;58097;48.364;-1.224;2023-03-15T01:46:44;7.80;;;3.38;;
70543;SDS011;58097;48.364;-1.224;2023-03-15T01:49:10;11.57;;;3.17;;
70543;SDS011;58097;48.364;-1.224;2023-03-15T01:54:20;10.40;;;3.10;;
70543;SDS011;58097;48.364;-1.224;2023-03-15T01:56:56;3.63;;;2.50;;
70543;SDS011;58097;48.364;-1.224;2023-03-15T01:59:28;13.55;;;3.47;;
70543;SDS011;58097;48.364;-1.224;2023-03-15T02:01:57;12.03;;;4.07;;
70543;SDS011;58097;48.364;-1.224;2023-03-15T02:04:31;11.05;;;2.85;;
70543;SDS011;58097;48.364;-1.224;2023-03-15T02:07:00;6.50;;;2.83;;
70543;SDS011;58097;48.364;-1.224;2023-03-15T02:10:02;7.43;;;2.50;;
70543;SDS011;58097;48.364;-1.224;2023-03-15T02:12:43;10.15;;;3.00;;
70543;SDS011;58097;48.364;-1.224;2023-03-15T02:15:11;10.60;;;3.33;;
70543;SDS011;58097;48.364;-1.224;2023-03-15T02:17:38;5.68;;;3.00;;
70543;SDS011;58097;48.364;-1.224;2023-03-15T02:22:52;18.67;;;3.17;;
70543;SDS011;58097;48.364;-1.224;2023-03-15T02:28:04;8.68;;;4.28;;
70543;SDS011;58097;48.364;-1.224;2023-03-15T02:30:32;8.13;;;3.47;;
70543;SDS011;58097;48.364;-1.224;2023-03-15T02:32:58;5.35;;;3.30;;
70543;SDS011;58097;48.364;-1.224;2023-03-15T02:35:30;12.30;;;3.90;;
70543;SDS011;58097;48.364;-1.224;2023-03-15T02:37:57;11.23;;;3.67;;
70543;SDS011;58097;48.364;-1.224;2023-03-15T02:40:23;5.32;;;3.03;;
70543;SDS011;58097;48.364;-1.224;2023-03-15T02:42:52;11.70;;;3.70;;
70543;SDS011;58097;48.364;-1.224;2023-03-15T02:45:21;8.32;;;3.47;;
70543;SDS011;58097;48.364;-1.224;2023-03-15T02:47:49;7.60;;;3.13;;
70543;SDS011;58097;48.364;-1.224;2023-03-15T02:50:15;12.57;;;4.85;;
70543;SDS011;58097;48.364;-1.224;2023-03-15T02:52:40;10.98;;;3.38;;
70543;SDS011;58097;48.364;-1.224;2023-03-15T02:55:06;11.55;;;3.25;;
70543;SDS011;58097;48.364;-1.224;2023-03-15T02:57:32;9.02;;;3.45;;
70543;SDS011;58097;48.364;-1.224;2023-03-15T02:59:57;14.50;;;4.40;;
70543;SDS011;58097;48.364;-1.224;2023-03-15T03:02:24;12.85;;;3.50;;
70543;SDS011;58097;48.364;-1.224;2023-03-15T03:04:50;9.13;;;3.40;;
70543;SDS011;58097;48.364;-1.224;2023-03-15T03:07:16;9.68;;;4.20;;
70543;SDS011;58097;48.364;-1.224;2023-03-15T03:09:42;10.02;;;4.43;;
70543;SDS011;58097;48.364;-1.224;2023-03-15T03:12:07;9.77;;;4.13;;
70543;SDS011;58097;48.364;-1.224;2023-03-15T03:14:33;11.10;;;3.35;;
70543;SDS011;58097;48.364;-1.224;2023-03-15T03:16:58;11.45;;;4.13;;
70543;SDS011;58097;48.364;-1.224;2023-03-15T03:19:24;5.40;;;3.22;;
70543;SDS011;58097;48.364;-1.224;2023-03-15T03:21:52;9.23;;;3.35;;
70543;SDS011;58097;48.364;-1.224;2023-03-15T03:24:19;15.23;;;4.40;;
70543;SDS011;58097;48.364;-1.224;2023-03-15T03:26:45;12.00;;;3.72;;
70543;SDS011;58097;48.364;-1.224;2023-03-15T03:29:10;14.75;;;3.38;;
70543;SDS011;58097;48.364;-1.224;2023-03-15T03:31:36;10.43;;;3.72;;
70543;SDS011;58097;48.364;-1.224;2023-03-15T03:34:03;5.20;;;3.63;;
70543;SDS011;58097;48.364;-1.224;2023-03-15T03:36:28;13.23;;;4.63;;
70543;SDS011;58097;48.364;-1.224;2023-03-15T03:38:54;14.48;;;4.35;;
70543;SDS011;58097;48.364;-1.224;2023-03-15T03:41:20;13.93;;;3.92;;
70543;SDS011;58097;48.364;-1.224;2023-03-15T03:43:46;10.38;;;4.63;;
70543;SDS011;58097;48.364;-1.224;2023-03-15T03:46:12;6.03;;;3.47;;
70543;SDS011;58097;48.364;-1.224;2023-03-15T03:48:37;7.60;;;3.88;;
70543;SDS011;58097;48.364;-1.224;2023-03-15T03:51:03;12.50;;;3.92;;
70543;SDS011;58097;48.364;-1.224;2023-03-15T03:53:28;10.77;;;3.85;;
70543;SDS011;58097;48.364;-1.224;2023-03-15T03:55:54;7.68;;;4.25;;
70543;SDS011;58097;48.364;-1.224;2023-03-15T03:58:19;11.95;;;4.72;;
70543;SDS011;58097;48.364;-1.224;2023-03-15T04:00:45;13.80;;;6.40;;
70543;SDS011;58097;48.364;-1.224;2023-03-15T04:03:11;14.77;;;5.13;;
70543;SDS011;58097;48.364;-1.224;2023-03-15T04:05:36;14.30;;;5.57;;
70543;SDS011;58097;48.364;-1.224;2023-03-15T04:08:02;8.95;;;4.65;;
70543;SDS011;58097;48.364;-1.224;2023-03-15T04:10:28;6.97;;;4.13;;
70543;SDS011;58097;48.364;-1.224;2023-03-15T04:12:53;6.93;;;4.57;;
70543;SDS011;58097;48.364;-1.224;2023-03-15T04:15:20;13.73;;;5.50;;
70543;SDS011;58097;48.364;-1.224;2023-03-15T04:17:47;8.63;;;4.65;;
70543;SDS011;58097;48.364;-1.224;2023-03-15T04:20:12;7.60;;;4.93;;
70543;SDS011;58097;48.364;-1.224;2023-03-15T04:22:41;16.00;;;5.03;;
70543;SDS011;58097;48.364;-1.224;2023-03-15T04:25:13;11.13;;;4.10;;
70543;SDS011;58097;48.364;-1.224;2023-03-15T04:27:39;10.35;;;4.85;;
70543;SDS011;58097;48.364;-1.224;2023-03-15T04:30:05;9.07;;;4.15;;
70543;SDS011;58097;48.364;-1.224;2023-03-15T04:32:30;9.23;;;4.05;;
70543;SDS011;58097;48.364;-1.224;2023-03-15T04:34:56;15.90;;;5.35;;
70543;SDS011;58097;48.364;-1.224;2023-03-15T04:37:21;9.18;;;4.20;;
70543;SDS011;58097;48.364;-1.224;2023-03-15T04:39:46;10.68;;;4.32;;
70543;SDS011;58097;48.364;-1.224;2023-03-15T04:42:12;14.60;;;4.13;;
70543;SDS011;58097;48.364;-1.224;2023-03-15T04:44:37;11.48;;;5.35;;
70543;SDS011;58097;48.364;-1.224;2023-03-15T04:47:02;17.55;;;5.00;;
70543;SDS011;58097;48.364;-1.224;2023-03-15T04:49:28;10.38;;;4.13;;
70543;SDS011;58097;48.364;-1.224;2023-03-15T04:51:53;10.70;;;4.18;;
70543;SDS011;58097;48.364;-1.224;2023-03-15T04:54:18;7.85;;;4.35;;
70543;SDS011;58097;48.364;-1.224;2023-03-15T04:56:44;11.77;;;3.80;;
70543;SDS011;58097;48.364;-1.224;2023-03-15T04:59:09;8.60;;;4.18;;
70543;SDS011;58097;48.364;-1.224;2023-03-15T05:01:35;14.25;;;3.47;;
70543;SDS011;58097;48.364;-1.224;2023-03-15T05:04:01;13.65;;;3.08;;
70543;SDS011;58097;48.364;-1.224;2023-03-15T05:06:27;7.90;;;3.60;;
70543;SDS011;58097;48.364;-1.224;2023-03-15T05:08:53;11.57;;;3.53;;
70543;SDS011;58097;48.364;-1.224;2023-03-15T05:11:19;6.63;;;3.60;;
70543;SDS011;58097;48.364;-1.224;2023-03-15T05:13:44;7.40;;;3.17;;
70543;SDS011;58097;48.364;-1.224;2023-03-15T05:16:10;7.07;;;3.33;;
70543;SDS011;58097;48.364;-1.224;2023-03-15T05:18:35;14.18;;;3.70;;
70543;SDS011;58097;48.364;-1.224;2023-03-15T05:21:01;13.07;;;3.08;;
70543;SDS011;58097;48.364;-1.224;2023-03-15T05:23:26;7.55;;;3.22;;
70543;SDS011;58097;48.364;-1.224;2023-03-15T05:25:52;6.40;;;3.35;;
70543;SDS011;58097;48.364;-1.224;2023-03-15T05:28:21;5.28;;;2.80;;
70543;SDS011;58097;48.364;-1.224;2023-03-15T05:30:48;9.68;;;3.63;;
70543;SDS011;58097;48.364;-1.224;2023-03-15T05:33:16;6.65;;;2.63;;
70543;SDS011;58097;48.364;-1.224;2023-03-15T05:35:41;8.55;;;3.40;;
70543;SDS011;58097;48.364;-1.224;2023-03-15T05:38:08;7.88;;;3.60;;
70543;SDS011;58097;48.364;-1.224;2023-03-15T05:40:38;8.27;;;3.83;;
70543;SDS011;58097;48.364;-1.224;2023-03-15T05:43:10;7.68;;;3.03;;
70543;SDS011;58097;48.364;-1.224;2023-03-15T05:45:36;4.13;;;3.05;;
70543;SDS011;58097;48.364;-1.224;2023-03-15T05:48:02;10.48;;;3.03;;
70543;SDS011;58097;48.364;-1.224;2023-03-15T05:50:28;8.23;;;2.97;;
70543;SDS011;58097;48.364;-1.224;2023-03-15T05:52:53;6.95;;;3.03;;
70543;SDS011;58097;48.364;-1.224;2023-03-15T05:55:19;6.55;;;3.33;;
70543;SDS011;58097;48.364;-1.224;2023-03-15T05:57:45;5.20;;;2.55;;
70543;SDS011;58097;48.364;-1.224;2023-03-15T06:00:10;7.30;;;3.30;;
70543;SDS011;58097;48.364;-1.224;2023-03-15T06:02:38;7.90;;;2.72;;
70543;SDS011;58097;48.364;-1.224;2023-03-15T06:05:04;12.88;;;4.15;;
70543;SDS011;58097;48.364;-1.224;2023-03-15T06:07:30;8.68;;;3.47;;
70543;SDS011;58097;48.364;-1.224;2023-03-15T06:09:55;7.85;;;3.42;;
70543;SDS011;58097;48.364;-1.224;2023-03-15T06:12:21;7.25;;;2.88;;
70543;SDS011;58097;48.364;-1.224;2023-03-15T06:14:46;8.95;;;3.10;;
70543;SDS011;58097;48.364;-1.224;2023-03-15T06:17:11;7.78;;;3.38;;
70543;SDS011;58097;48.364;-1.224;2023-03-15T06:19:37;5.10;;;2.92;;
70543;SDS011;58097;48.364;-1.224;2023-03-15T06:22:02;5.65;;;3.25;;
70543;SDS011;58097;48.364;-1.224;2023-03-15T06:24:28;12.05;;;3.47;;
70543;SDS011;58097;48.364;-1.224;2023-03-15T06:26:54;3.83;;;2.80;;
70543;SDS011;58097;48.364;-1.224;2023-03-15T06:29:20;8.55;;;4.07;;
70543;SDS011;58097;48.364;-1.224;2023-03-15T06:31:46;12.27;;;3.85;;
70543;SDS011;58097;48.364;-1.224;2023-03-15T06:34:13;12.57;;;4.38;;
70543;SDS011;58097;48.364;-1.224;2023-03-15T06:36:39;11.60;;;5.15;;
70543;SDS011;58097;48.364;-1.224;2023-03-15T06:39:06;6.53;;;4.20;;
70543;SDS011;58097;48.364;-1.224;2023-03-15T06:41:32;6.88;;;4.60;;
70543;SDS011;58097;48.364;-1.224;2023-03-15T06:43:57;6.25;;;3.13;;
70543;SDS011;58097;48.364;-1.224;2023-03-15T06:46:23;9.35;;;3.58;;
70543;SDS011;58097;48.364;-1.224;2023-03-15T06:48:48;12.75;;;3.92;;
70543;SDS011;58097;48.364;-1.224;2023-03-15T06:51:13;10.68;;;8.93;;
70543;SDS011;58097;48.364;-1.224;2023-03-15T06:53:39;7.00;;;4.03;;
70543;SDS011;58097;48.364;-1.224;2023-03-15T06:56:04;9.70;;;3.67;;
70543;SDS011;58097;48.364;-1.224;2023-03-15T06:58:30;13.75;;;3.55;;
70543;SDS011;58097;48.364;-1.224;2023-03-15T07:00:55;9.70;;;3.78;;
70543;SDS011;58097;48.364;-1.224;2023-03-15T07:03:20;5.32;;;2.85;;
70543;SDS011;58097;48.364;-1.224;2023-03-15T07:05:47;11.77;;;4.03;;
70543;SDS011;58097;48.364;-1.224;2023-03-15T07:08:16;10.80;;;4.03;;
70543;SDS011;58097;48.364;-1.224;2023-03-15T07:10:42;11.02;;;3.75;;
70543;SDS011;58097;48.364;-1.224;2023-03-15T07:13:07;11.65;;;3.20;;
70543;SDS011;58097;48.364;-1.224;2023-03-15T07:15:35;9.23;;;3.70;;
70543;SDS011;58097;48.364;-1.224;2023-03-15T07:18:01;9.40;;;3.63;;
70543;SDS011;58097;48.364;-1.224;2023-03-15T07:20:26;12.25;;;3.13;;
70543;SDS011;58097;48.364;-1.224;2023-03-15T07:22:52;7.13;;;3.28;;
70543;SDS011;58097;48.364;-1.224;2023-03-15T07:25:17;14.70;;;3.53;;
70543;SDS011;58097;48.364;-1.224;2023-03-15T07:27:48;7.18;;;2.80;;
70543;SDS011;58097;48.364;-1.224;2023-03-15T07:30:14;7.13;;;2.92;;
70543;SDS011;58097;48.364;-1.224;2023-03-15T07:32:40;8.98;;;3.00;;
70543;SDS011;58097;48.364;-1.224;2023-03-15T07:35:05;7.35;;;3.03;;
70543;SDS011;58097;48.364;-1.224;2023-03-15T07:37:31;11.07;;;2.80;;
70543;SDS011;58097;48.364;-1.224;2023-03-15T07:39:56;5.68;;;2.80;;
70543;SDS011;58097;48.364;-1.224;2023-03-15T07:42:24;27.83;;;4.22;;
70543;SDS011;58097;48.364;-1.224;2023-03-15T07:44:49;6.95;;;3.28;;
70543;SDS011;58097;48.364;-1.224;2023-03-15T07:47:15;8.45;;;2.75;;
70543;SDS011;58097;48.364;-1.224;2023-03-15T07:49:40;12.48;;;2.63;;
70543;SDS011;58097;48.364;-1.224;2023-03-15T07:52:05;11.65;;;4.25;;
70543;SDS011;58097;48.364;-1.224;2023-03-15T07:54:31;9.35;;;2.97;;
70543;SDS011;58097;48.364;-1.224;2023-03-15T07:56:58;18.13;;;3.50;;
70543;SDS011;58097;48.364;-1.224;2023-03-15T07:59:23;7.60;;;3.25;;
70543;SDS011;58097;48.364;-1.224;2023-03-15T08:01:49;8.45;;;3.17;;
70543;SDS011;58097;48.364;-1.224;2023-03-15T08:04:15;8.38;;;2.10;;
70543;SDS011;58097;48.364;-1.224;2023-03-15T08:06:40;6.95;;;2.92;;
70543;SDS011;58097;48.364;-1.224;2023-03-15T08:09:06;9.52;;;3.45;;
70543;SDS011;58097;48.364;-1.224;2023-03-15T08:11:32;11.25;;;3.38;;
70543;SDS011;58097;48.364;-1.224;2023-03-15T08:13:57;8.95;;;3.08;;
70543;SDS011;58097;48.364;-1.224;2023-03-15T08:16:23;12.90;;;3.17;;
70543;SDS011;58097;48.364;-1.224;2023-03-15T08:18:48;8.48;;;3.17;;
70543;SDS011;58097;48.364;-1.224;2023-03-15T08:21:13;10.00;;;4.50;;
70543;SDS011;58097;48.364;-1.224;2023-03-15T08:23:39;9.25;;;3.25;;
70543;SDS011;58097;48.364;-1.224;2023-03-15T08:26:04;9.70;;;3.15;;
70543;SDS011;58097;48.364;-1.224;2023-03-15T08:28:29;9.32;;;3.75;;
70543;SDS011;58097;48.364;-1.224;2023-03-15T08:30:55;16.33;;;3.78;;
70543;SDS011;58097;48.364;-1.224;2023-03-15T08:33:20;7.18;;;3.53;;
70543;SDS011;58097;48.364;-1.224;2023-03-15T08:35:50;9.98;;;4.05;;
70543;SDS011;58097;48.364;-1.224;2023-03-15T08:38:16;6.40;;;3.35;;
70543;SDS011;58097;48.364;-1.224;2023-03-15T08:40:41;10.05;;;3.35;;
70543;SDS011;58097;48.364;-1.224;2023-03-15T08:43:07;8.93;;;3.75;;
70543;SDS011;58097;48.364;-1.224;2023-03-15T08:45:32;8.15;;;3.00;;
70543;SDS011;58097;48.364;-1.224;2023-03-15T08:47:58;9.38;;;3.90;;
70543;SDS011;58097;48.364;-1.224;2023-03-15T08:50:24;11.75;;;3.20;;
70543;SDS011;58097;48.364;-1.224;2023-03-15T08:52:52;8.70;;;3.10;;
70543;SDS011;58097;48.364;-1.224;2023-03-15T08:55:18;9.75;;;3.20;;
70543;SDS011;58097;48.364;-1.224;2023-03-15T08:57:43;10.07;;;3.13;;
70543;SDS011;58097;48.364;-1.224;2023-03-15T09:00:09;5.95;;;2.30;;
70543;SDS011;58097;48.364;-1.224;2023-03-15T09:02:41;7.57;;;2.67;;
70543;SDS011;58097;48.364;-1.224;2023-03-15T09:05:07;10.60;;;3.00;;
70543;SDS011;58097;48.364;-1.224;2023-03-15T09:07:35;3.53;;;2.50;;
70543;SDS011;58097;48.364;-1.224;2023-03-15T09:10:01;15.73;;;3.38;;
70543;SDS011;58097;48.364;-1.224;2023-03-15T09:12:28;6.85;;;3.65;;
70543;SDS011;58097;48.364;-1.224;2023-03-15T09:14:54;13.30;;;3.25;;
70543;SDS011;58097;48.364;-1.224;2023-03-15T09:17:19;11.02;;;4.30;;
70543;SDS011;58097;48.364;-1.224;2023-03-15T09:19:45;18.25;;;3.10;;
70543;SDS011;58097;48.364;-1.224;2023-03-15T09:22:10;17.55;;;4.28;;
70543;SDS011;58097;48.364;-1.224;2023-03-15T09:24:36;10.30;;;3.78;;
70543;SDS011;58097;48.364;-1.224;2023-03-15T09:27:01;10.00;;;3.25;;
70543;SDS011;58097;48.364;-1.224;2023-03-15T09:29:27;7.85;;;3.03;;
70543;SDS011;58097;48.364;-1.224;2023-03-15T09:31:53;19.85;;;3.28;;
70543;SDS011;58097;48.364;-1.224;2023-03-15T09:34:18;9.25;;;3.33;;
70543;SDS011;58097;48.364;-1.224;2023-03-15T09:36:44;14.75;;;3.17;;
70543;SDS011;58097;48.364;-1.224;2023-03-15T09:39:09;8.15;;;2.25;;
70543;SDS011;58097;48.364;-1.224;2023-03-15T09:49:50;10.55;;;3.33;;
70543;SDS011;58097;48.364;-1.224;2023-03-15T09:55:21;15.85;;;3.53;;
70543;SDS011;58097;48.364;-1.224;2023-03-15T09:57:57;6.13;;;2.23;;
70543;SDS011;58097;48.364;-1.224;2023-03-15T10:00:46;7.15;;;2.83;;
70543;SDS011;58097;48.364;-1.224;2023-03-15T10:03:20;11.63;;;3.55;;
70543;SDS011;58097;48.364;-1.224;2023-03-15T10:05:58;11.70;;;2.83;;
70543;SDS011;58097;48.364;-1.224;2023-03-15T10:08:29;11.45;;;2.88;;
70543;SDS011;58097;48.364;-1.224;2023-03-15T10:16:51;16.33;;;2.65;;
70543;SDS011;58097;48.364;-1.224;2023-03-15T10:27:24;9.07;;;2.88;;
70543;SDS011;58097;48.364;-1.224;2023-03-15T10:29:54;7.53;;;2.40;;
70543;SDS011;58097;48.364;-1.224;2023-03-15T10:32:23;13.77;;;3.55;;
70543;SDS011;58097;48.364;-1.224;2023-03-15T10:34:52;7.20;;;2.03;;
70543;SDS011;58097;48.364;-1.224;2023-03-15T10:37:20;9.20;;;2.33;;
70543;SDS011;58097;48.364;-1.224;2023-03-15T10:39:48;7.55;;;2.65;;
70543;SDS011;58097;48.364;-1.224;2023-03-15T10:42:24;8.02;;;1.90;;
70543;SDS011;58097;48.364;-1.224;2023-03-15T10:44:51;10.85;;;3.08;;
70543;SDS011;58097;48.364;-1.224;2023-03-15T10:47:18;5.82;;;2.03;;
70543;SDS011;58097;48.364;-1.224;2023-03-15T10:49:44;7.63;;;1.95;;
70543;SDS011;58097;48.364;-1.224;2023-03-15T10:55:17;6.65;;;1.25;;
70543;SDS011;58097;48.364;-1.224;2023-03-15T10:57:55;8.50;;;2.15;;
70543;SDS011;58097;48.364;-1.224;2023-03-15T11:00:31;10.90;;;2.33;;
70543;SDS011;58097;48.364;-1.224;2023-03-15T11:05:28;2.63;;;1.75;;
70543;SDS011;58097;48.364;-1.224;2023-03-15T11:08:09;11.07;;;2.53;;
70543;SDS011;58097;48.364;-1.224;2023-03-15T11:10:39;7.90;;;1.75;;
70543;SDS011;58097;48.364;-1.224;2023-03-15T11:15:35;6.43;;;1.80;;
70543;SDS011;58097;48.364;-1.224;2023-03-15T11:18:01;3.92;;;1.50;;
70543;SDS011;58097;48.364;-1.224;2023-03-15T11:20:37;6.15;;;1.60;;
70543;SDS011;58097;48.364;-1.224;2023-03-15T11:23:46;7.18;;;2.15;;
70543;SDS011;58097;48.364;-1.224;2023-03-15T11:25:53;6.53;;;1.98;;
70543;SDS011;58097;48.364;-1.224;2023-03-15T11:28:22;7.25;;;1.52;;
70543;SDS011;58097;48.364;-1.224;2023-03-15T11:30:52;8.77;;;2.00;;
70543;SDS011;58097;48.364;-1.224;2023-03-15T11:33:29;7.22;;;1.45;;
70543;SDS011;58097;48.364;-1.224;2023-03-15T11:36:02;8.73;;;1.42;;
70543;SDS011;58097;48.364;-1.224;2023-03-15T11:38:32;5.55;;;1.60;;
70543;SDS011;58097;48.364;-1.224;2023-03-15T11:41:04;9.60;;;1.45;;
70543;SDS011;58097;48.364;-1.224;2023-03-15T11:46:36;7.70;;;1.58;;
70543;SDS011;58097;48.364;-1.224;2023-03-15T11:51:51;11.05;;;1.58;;
70543;SDS011;58097;48.364;-1.224;2023-03-15T11:54:19;5.22;;;1.42;;
70543;SDS011;58097;48.364;-1.224;2023-03-15T11:56:53;5.05;;;1.42;;
70543;SDS011;58097;48.364;-1.224;2023-03-15T11:59:24;4.72;;;1.77;;
70543;SDS011;58097;48.364;-1.224;2023-03-15T12:07:55;7.22;;;2.35;;
70543;SDS011;58097;48.364;-1.224;2023-03-15T12:09:51;5.78;;;2.42;;
70543;SDS011;58097;48.364;-1.224;2023-03-15T12:23:12;6.38;;;1.63;;
70543;SDS011;58097;48.364;-1.224;2023-03-15T12:25:51;7.78;;;2.35;;
70543;SDS011;58097;48.364;-1.224;2023-03-15T12:28:19;10.40;;;2.03;;
70543;SDS011;58097;48.364;-1.224;2023-03-15T12:30:51;4.35;;;1.20;;
70543;SDS011;58097;48.364;-1.224;2023-03-15T12:33:23;4.97;;;1.60;;
70543;SDS011;58097;48.364;-1.224;2023-03-15T12:35:52;2.33;;;1.08;;
70543;SDS011;58097;48.364;-1.224;2023-03-15T12:38:24;6.07;;;1.50;;
70543;SDS011;58097;48.364;-1.224;2023-03-15T12:41:00;6.20;;;1.58;;
70543;SDS011;58097;48.364;-1.224;2023-03-15T12:43:41;11.43;;;2.13;;
70543;SDS011;58097;48.364;-1.224;2023-03-15T12:52:03;6.47;;;2.08;;
70543;SDS011;58097;48.364;-1.224;2023-03-15T12:57:36;14.32;;;1.80;;
70543;SDS011;58097;48.364;-1.224;2023-03-15T13:00:13;9.18;;;1.77;;
70543;SDS011;58097;48.364;-1.224;2023-03-15T13:02:44;3.35;;;1.08;;
70543;SDS011;58097;48.364;-1.224;2023-03-15T13:11:16;2.33;;;1.35;;
70543;SDS011;58097;48.364;-1.224;2023-03-15T13:18:55;3.53;;;0.93;;
70543;SDS011;58097;48.364;-1.224;2023-03-15T13:21:25;6.63;;;1.25;;
70543;SDS011;58097;48.364;-1.224;2023-03-15T13:23:55;3.67;;;1.42;;
70543;SDS011;58097;48.364;-1.224;2023-03-15T13:31:30;14.68;;;2.47;;
70543;SDS011;58097;48.364;-1.224;2023-03-15T13:33:57;12.02;;;2.25;;
70543;SDS011;58097;48.364;-1.224;2023-03-15T13:39:08;8.05;;;1.38;;
70543;SDS011;58097;48.364;-1.224;2023-03-15T13:41:41;9.43;;;1.48;;
70543;SDS011;58097;48.364;-1.224;2023-03-15T13:44:12;4.03;;;1.20;;
70543;SDS011;58097;48.364;-1.224;2023-03-15T13:46:42;6.13;;;1.70;;
70543;SDS011;58097;48.364;-1.224;2023-03-15T13:49:08;3.53;;;1.08;;
70543;SDS011;58097;48.364;-1.224;2023-03-15T13:51:36;5.95;;;1.10;;
70543;SDS011;58097;48.364;-1.224;2023-03-15T13:54:17;2.25;;;1.05;;
70543;SDS011;58097;48.364;-1.224;2023-03-15T14:02:23;3.78;;;1.10;;
70543;SDS011;58097;48.364;-1.224;2023-03-15T14:04:57;6.55;;;1.20;;
70543;SDS011;58097;48.364;-1.224;2023-03-15T14:07:35;9.40;;;1.38;;
70543;SDS011;58097;48.364;-1.224;2023-03-15T14:12:41;8.45;;;2.00;;
70543;SDS011;58097;48.364;-1.224;2023-03-15T14:15:18;6.97;;;1.75;;
70543;SDS011;58097;48.364;-1.224;2023-03-15T14:17:50;4.25;;;1.23;;
70543;SDS011;58097;48.364;-1.224;2023-03-15T14:20:39;5.85;;;1.65;;
70543;SDS011;58097;48.364;-1.224;2023-03-15T14:23:09;4.78;;;1.30;;
70543;SDS011;58097;48.364;-1.224;2023-03-15T14:25:37;3.53;;;1.00;;
70543;SDS011;58097;48.364;-1.224;2023-03-15T14:28:03;8.88;;;1.92;;
70543;SDS011;58097;48.364;-1.224;2023-03-15T14:30:31;6.90;;;1.10;;
70543;SDS011;58097;48.364;-1.224;2023-03-15T14:33:00;7.15;;;1.55;;
70543;SDS011;58097;48.364;-1.224;2023-03-15T14:35:31;7.80;;;1.73;;
70543;SDS011;58097;48.364;-1.224;2023-03-15T14:40:46;8.20;;;1.65;;
70543;SDS011;58097;48.364;-1.224;2023-03-15T14:43:12;7.35;;;1.17;;
70543;SDS011;58097;48.364;-1.224;2023-03-15T14:45:39;6.50;;;1.70;;
70543;SDS011;58097;48.364;-1.224;2023-03-15T14:48:07;8.00;;;1.92;;
70543;SDS011;58097;48.364;-1.224;2023-03-15T14:50:58;6.85;;;3.38;;
70543;SDS011;58097;48.364;-1.224;2023-03-15T14:53:24;12.40;;;3.25;;
70543;SDS011;58097;48.364;-1.224;2023-03-15T14:55:51;7.63;;;2.08;;
70543;SDS011;58097;48.364;-1.224;2023-03-15T14:58:18;8.27;;;1.50;;
70543;SDS011;58097;48.364;-1.224;2023-03-15T15:00:46;3.13;;;1.08;;
70543;SDS011;58097;48.364;-1.224;2023-03-15T15:03:19;5.78;;;1.70;;
70543;SDS011;58097;48.364;-1.224;2023-03-15T15:05:49;4.55;;;1.20;;
70543;SDS011;58097;48.364;-1.224;2023-03-15T15:08:17;8.95;;;1.98;;
70543;SDS011;58097;48.364;-1.224;2023-03-15T15:10:44;5.40;;;1.35;;
70543;SDS011;58097;48.364;-1.224;2023-03-15T15:13:44;6.78;;;1.85;;
70543;SDS011;58097;48.364;-1.224;2023-03-15T15:16:03;6.00;;;1.70;;
70543;SDS011;58097;48.364;-1.224;2023-03-15T15:18:30;4.50;;;1.65;;
70543;SDS011;58097;48.364;-1.224;2023-03-15T15:20:59;8.18;;;2.13;;
70543;SDS011;58097;48.364;-1.224;2023-03-15T15:23:27;6.20;;;1.75;;
70543;SDS011;58097;48.364;-1.224;2023-03-15T15:25:56;6.25;;;1.80;;
70543;SDS011;58097;48.364;-1.224;2023-03-15T15:28:25;8.00;;;1.55;;
70543;SDS011;58097;48.364;-1.224;2023-03-15T15:30:51;11.52;;;3.15;;
70543;SDS011;58097;48.364;-1.224;2023-03-15T15:33:16;5.95;;;1.35;;
70543;SDS011;58097;48.364;-1.224;2023-03-15T15:35:42;6.05;;;1.50;;
70543;SDS011;58097;48.364;-1.224;2023-03-15T15:38:08;7.80;;;1.50;;
70543;SDS011;58097;48.364;-1.224;2023-03-15T15:40:35;5.20;;;1.50;;
70543;SDS011;58097;48.364;-1.224;2023-03-15T15:43:01;10.50;;;1.77;;
70543;SDS011;58097;48.364;-1.224;2023-03-15T15:45:27;8.18;;;1.90;;
70543;SDS011;58097;48.364;-1.224;2023-03-15T15:47:53;6.75;;;1.42;;
70543;SDS011;58097;48.364;-1.224;2023-03-15T15:50:19;4.97;;;1.25;;
70543;SDS011;58097;48.364;-1.224;2023-03-15T15:52:49;5.97;;;1.25;;
70543;SDS011;58097;48.364;-1.224;2023-03-15T15:55:30;5.70;;;1.00;;
70543;SDS011;58097;48.364;-1.224;2023-03-15T15:57:57;9.13;;;1.67;;
70543;SDS011;58097;48.364;-1.224;2023-03-15T16:00:24;7.50;;;1.45;;
70543;SDS011;58097;48.364;-1.224;2023-03-15T16:02:51;7.88;;;1.92;;
70543;SDS011;58097;48.364;-1.224;2023-03-15T16:05:18;15.57;;;1.88;;
70543;SDS011;58097;48.364;-1.224;2023-03-15T16:07:44;7.90;;;1.60;;
70543;SDS011;58097;48.364;-1.224;2023-03-15T16:10:16;11.30;;;2.10;;
70543;SDS011;58097;48.364;-1.224;2023-03-15T16:12:42;5.85;;;1.45;;
70543;SDS011;58097;48.364;-1.224;2023-03-15T16:15:09;8.40;;;2.03;;
70543;SDS011;58097;48.364;-1.224;2023-03-15T16:17:36;8.85;;;2.80;;
70543;SDS011;58097;48.364;-1.224;2023-03-15T16:20:01;8.48;;;1.73;;